createdAt,value
2022-10-26T00:01:07.480Z,10.05
2022-10-26T00:03:36.594Z,10.95
2022-10-26T00:06:09.855Z,12.45
2022-10-26T00:08:38.563Z,15.27
2022-10-26T00:11:07.227Z,14.55
2022-10-26T00:13:36.965Z,15.73
2022-10-26T00:16:09.645Z,16.92
2022-10-26T00:18:37.704Z,14.68
2022-10-26T00:21:06.043Z,13.68
2022-10-26T00:23:34.454Z,15.50
2022-10-26T00:26:02.505Z,12.00
2022-10-26T00:28:30.389Z,10.70
2022-10-26T00:31:03.750Z,11.00
2022-10-26T00:33:32.399Z,11.35
2022-10-26T00:36:00.354Z,11.98
2022-10-26T00:38:28.226Z,12.27
2022-10-26T00:43:39.737Z,14.63
2022-10-26T00:46:13.817Z,13.35
2022-10-26T00:48:45.697Z,13.25
2022-10-26T00:51:19.039Z,13.88
2022-10-26T00:53:47.211Z,12.32
2022-10-26T00:56:14.995Z,11.63
2022-10-26T00:58:43.674Z,13.57
2022-10-26T01:01:12.915Z,13.75
2022-10-26T01:03:40.741Z,12.10
2022-10-26T01:06:09.541Z,9.82
2022-10-26T01:08:37.633Z,10.57
2022-10-26T01:11:06.017Z,9.38
2022-10-26T01:13:36.618Z,9.43
2022-10-26T01:16:33.375Z,7.32
2022-10-26T01:19:27.974Z,10.23
2022-10-26T01:22:01.777Z,10.88
2022-10-26T01:25:03.115Z,12.35
2022-10-26T01:27:33.252Z,14.02
2022-10-26T01:30:21.852Z,18.15
2022-10-26T01:33:09.553Z,19.92
2022-10-26T01:35:43.418Z,20.95
2022-10-26T01:38:17.413Z,24.48
2022-10-26T01:40:51.786Z,25.30
2022-10-26T01:43:21.274Z,25.40
2022-10-26T01:45:50.140Z,24.23
2022-10-26T01:48:22.056Z,24.33
2022-10-26T01:50:53.194Z,25.63
2022-10-26T01:53:21.645Z,25.07
2022-10-26T01:55:52.010Z,25.90
2022-10-26T01:58:55.828Z,27.15
2022-10-26T02:01:36.525Z,24.92
2022-10-26T02:04:18.826Z,26.60
2022-10-26T02:09:25.946Z,27.17
2022-10-26T02:11:55.071Z,27.33
2022-10-26T02:14:29.299Z,26.40
2022-10-26T02:16:58.766Z,28.45
2022-10-26T02:19:38.571Z,26.25
2022-10-26T02:22:14.520Z,24.83
2022-10-26T02:24:43.696Z,25.58
2022-10-26T02:27:17.194Z,27.05
2022-10-26T02:29:45.539Z,24.90
2022-10-26T02:32:14.718Z,26.80
2022-10-26T02:34:47.123Z,28.15
2022-10-26T02:37:17.126Z,29.58
2022-10-26T02:39:47.958Z,27.73
2022-10-26T02:42:17.205Z,28.42
2022-10-26T02:44:50.623Z,29.30
2022-10-26T02:47:19.754Z,25.90
2022-10-26T02:49:49.040Z,23.45
2022-10-26T02:52:24.052Z,24.80
2022-10-26T02:54:56.154Z,24.55
2022-10-26T03:00:08.442Z,23.35
2022-10-26T03:02:36.277Z,26.17
2022-10-26T03:05:15.060Z,26.02
2022-10-26T03:07:42.841Z,26.42
2022-10-26T03:10:11.529Z,24.45
2022-10-26T03:12:39.298Z,23.27
2022-10-26T03:15:07.872Z,21.00
2022-10-26T03:17:35.569Z,20.33
2022-10-26T03:20:03.395Z,19.48
2022-10-26T03:22:32.497Z,17.45
2022-10-26T03:25:00.448Z,16.92
2022-10-26T03:27:28.432Z,15.98
2022-10-26T03:29:56.130Z,13.77
2022-10-26T03:32:23.855Z,12.70
2022-10-26T03:34:51.894Z,11.80
2022-10-26T03:37:19.662Z,11.57
2022-10-26T03:39:48.729Z,9.98
2022-10-26T03:42:16.515Z,10.40
2022-10-26T03:44:44.324Z,10.45
2022-10-26T03:47:11.977Z,9.90
2022-10-26T03:49:39.666Z,9.40
2022-10-26T03:52:07.465Z,9.75
2022-10-26T03:54:35.184Z,9.13
2022-10-26T03:57:04.227Z,8.52
2022-10-26T03:59:31.941Z,9.63
2022-10-26T04:01:59.661Z,9.77
2022-10-26T04:04:27.468Z,9.65
2022-10-26T04:06:55.180Z,9.50
2022-10-26T04:09:22.840Z,8.90
2022-10-26T04:11:50.790Z,9.20
2022-10-26T04:14:19.833Z,9.43
2022-10-26T04:16:47.558Z,12.32
2022-10-26T04:19:15.293Z,11.38
2022-10-26T04:21:42.980Z,10.48
2022-10-26T04:24:11.627Z,10.98
2022-10-26T04:26:39.443Z,11.93
2022-10-26T04:29:07.639Z,11.00
2022-10-26T04:31:36.806Z,11.52
2022-10-26T04:34:04.811Z,11.00
2022-10-26T04:36:32.535Z,11.07
2022-10-26T04:39:00.301Z,11.48
2022-10-26T04:41:28.057Z,12.23
2022-10-26T04:43:55.746Z,14.27
2022-10-26T04:46:23.464Z,18.08
2022-10-26T04:48:52.520Z,15.80
2022-10-26T04:51:20.231Z,19.08
2022-10-26T04:53:48.305Z,18.67
2022-10-26T04:56:16.008Z,16.55
2022-10-26T04:58:43.726Z,18.40
2022-10-26T05:01:11.491Z,17.42
2022-10-26T05:03:39.235Z,16.42
2022-10-26T05:06:11.241Z,15.82
2022-10-26T05:08:38.886Z,18.05
2022-10-26T05:11:06.665Z,20.05
2022-10-26T05:13:34.391Z,18.10
2022-10-26T05:16:02.125Z,15.75
2022-10-26T05:18:30.027Z,14.43
2022-10-26T05:20:57.711Z,12.25
2022-10-26T05:23:27.001Z,13.07
2022-10-26T05:25:56.854Z,12.15
2022-10-26T05:28:24.820Z,10.95
2022-10-26T05:30:52.511Z,11.90
2022-10-26T05:33:20.219Z,11.05
2022-10-26T05:35:48.021Z,9.10
2022-10-26T05:38:17.305Z,10.52
2022-10-26T05:40:50.112Z,10.10
2022-10-26T05:43:18.622Z,8.50
2022-10-26T05:45:46.711Z,8.75
2022-10-26T05:48:14.507Z,8.18
2022-10-26T05:50:42.213Z,7.80
2022-10-26T05:53:10.066Z,8.02
2022-10-26T05:55:38.642Z,8.73
2022-10-26T05:58:11.677Z,7.72
2022-10-26T06:00:48.359Z,7.18
2022-10-26T06:03:26.347Z,7.32
2022-10-26T06:05:56.371Z,12.20
2022-10-26T06:08:26.338Z,11.60
2022-10-26T06:10:55.076Z,11.77
2022-10-26T06:13:24.923Z,12.25
2022-10-26T06:16:07.363Z,12.27
2022-10-26T06:18:45.871Z,12.68
2022-10-26T06:21:31.652Z,11.48
2022-10-26T06:24:06.460Z,9.13
2022-10-26T06:26:44.350Z,10.35
2022-10-26T06:29:25.941Z,11.20
2022-10-26T06:31:53.701Z,14.27
2022-10-26T06:34:27.073Z,17.48
2022-10-26T06:36:55.988Z,14.35
2022-10-26T06:39:26.839Z,13.63
2022-10-26T06:41:55.398Z,13.85
2022-10-26T06:44:25.949Z,13.38
2022-10-26T06:47:00.658Z,12.90
2022-10-26T06:49:32.523Z,11.02
2022-10-26T06:52:02.821Z,10.90
2022-10-26T06:54:46.421Z,11.07
2022-10-26T06:57:16.224Z,11.82
2022-10-26T06:59:49.413Z,14.98
2022-10-26T07:02:18.595Z,14.50
2022-10-26T07:04:46.725Z,14.65
2022-10-26T07:07:16.844Z,14.35
2022-10-26T07:09:44.731Z,14.95
2022-10-26T07:12:12.542Z,17.42
2022-10-26T07:14:40.475Z,14.52
2022-10-26T07:17:09.997Z,13.75
2022-10-26T07:19:37.747Z,12.48
2022-10-26T07:22:05.455Z,12.40
2022-10-26T07:24:33.327Z,13.98
2022-10-26T07:27:00.971Z,12.82
2022-10-26T07:29:28.960Z,12.40
2022-10-26T07:31:57.026Z,11.32
2022-10-26T07:34:26.200Z,10.73
2022-10-26T07:36:54.031Z,10.20
2022-10-26T07:39:21.704Z,11.43
2022-10-26T07:41:49.402Z,12.20
2022-10-26T07:44:17.175Z,13.32
2022-10-26T07:46:45.053Z,15.20
2022-10-26T07:49:15.188Z,14.55
2022-10-26T07:51:46.929Z,12.75
2022-10-26T07:54:14.762Z,9.75
2022-10-26T07:56:42.493Z,9.48
2022-10-26T07:59:13.167Z,9.20
2022-10-26T08:01:40.952Z,8.75
2022-10-26T08:04:08.675Z,9.13
2022-10-26T08:06:36.438Z,9.43
2022-10-26T08:09:05.707Z,9.10
2022-10-26T08:11:33.465Z,9.65
2022-10-26T08:14:01.202Z,8.40
2022-10-26T08:16:28.913Z,8.75
2022-10-26T08:18:56.774Z,7.90
2022-10-26T08:21:36.299Z,8.13
2022-10-26T08:24:09.400Z,8.95
2022-10-26T08:26:37.338Z,8.23
2022-10-26T08:29:05.335Z,8.10
2022-10-26T08:31:33.022Z,8.13
2022-10-26T08:34:01.797Z,8.20
2022-10-26T08:36:29.815Z,9.20
2022-10-26T08:38:57.536Z,9.45
2022-10-26T08:41:37.950Z,9.50
2022-10-26T08:44:21.909Z,9.50
2022-10-26T08:46:54.194Z,9.38
2022-10-26T08:49:26.282Z,7.40
